• Join FlightAware (Why Join?)
  • Login
  • US Flag 
12:27AM EDT


 

Airport Tracker/Info


-or-


 

Live Flight TrackerFlight Track Log ✈ EJA831 ✈ 26-Jul-2013 ✈ KMGN - KMDW

Flight Track Log - Related Links

Times and Time Zones

All times are in EDT time to prevent confusion due to time zone crossing. See the EJA831 flight status page for this flight to view local times or setup timezone preferences in your user account.

Time Position Orientation Groundspeed Altitude Reporting Facility
EDT Latitude Longitude Course Direction KTS MPH feet Rate Location/Type
11:57AM 45.4269 -84.9989 204° Southwest 188 216 3,100  Level Minneapolis Center
11:58AM 45.3711 -85.0361 205° Southwest 219 252 4,900 960 Climbing Minneapolis Center
11:59AM 45.3006 -85.0233 173° South 244 281 5,200 1,620 Climbing Minneapolis Center
12:00PM 45.2311 -84.9911 162° South 256 295 8,300 3,120 Climbing Minneapolis Center
12:01PM 45.1544 -84.9631 166° South 270 311 11,700 3,600 Climbing Minneapolis Center
12:02PM 44.9988 -85.1550 204° Southwest  Level FlightAware Approximate
12:02PM 45.0592 -85.0161 201° Southwest 295 339 15,800  Level Minneapolis Center
12:03PM 44.9842 -85.0639 204° Southwest 294 338 19,100 2,760 Climbing Minneapolis Center
12:04PM 44.9100 -85.1128 205° Southwest 293 337 21,600 1,380 Climbing Minneapolis Center
12:05PM 44.8231 -85.1669 204° Southwest 332 382 22,000 180 Climbing Minneapolis Center
12:06PM 44.7278 -85.2289 205° Southwest 368 423 22,000  Level Minneapolis Center
12:07PM 44.6342 -85.2878 204° Southwest 368 423 22,000  Level Minneapolis Center
12:08PM 44.5414 -85.3469 204° Southwest 364 419 22,000  Level Minneapolis Center
12:09PM 44.4289 -85.4169 204° Southwest 366 421 22,000  Level Minneapolis Center
12:10PM 44.3353 -85.4753 204° Southwest 366 421 22,000  Level Minneapolis Center
12:11PM 44.2428 -85.5344 205° Southwest 366 421 22,000  Level Minneapolis Center
12:12PM 44.1494 -85.5925 204° Southwest 366 421 22,000  Level Minneapolis Center
12:13PM 44.0542 -85.6517 204° Southwest 368 423 22,000  Level Minneapolis Center
12:14PM 43.9603 -85.7100 204° Southwest 370 426 22,000  Level Minneapolis Center
12:15PM 43.8675 -85.7672 204° Southwest 369 425 22,000  Level Minneapolis Center
12:16PM 43.7561 -85.8356 204° Southwest 367 422 22,000  Level Minneapolis Center
12:17PM 43.6628 -85.8933 204° Southwest 367 422 22,000  Level Minneapolis Center
12:18PM 43.5697 -85.9506 204° Southwest 368 423 22,000  Level Minneapolis Center
12:19PM 43.4764 -86.0081 204° Southwest 368 423 22,000  Level Minneapolis Center
12:20PM 43.3819 -86.0644 203° Southwest 370 426 22,000  Level Minneapolis Center
12:21PM 43.2700 -86.1331 204° Southwest 371 427 22,000  Level Minneapolis Center
12:22PM 43.1767 -86.1897 204° Southwest 372 428 22,000 -480 Level Minneapolis Center
12:23PM 43.0847 -86.2453 204° Southwest 368 423 21,100 -540 Descending Chicago Center
12:24PM 42.9931 -86.2997 203° Southwest 365 420 21,000 -60 Descending Chicago Center
12:25PM 42.8975 -86.3567 204° Southwest 375 432 21,000  Level Chicago Center
12:27PM 42.7839 -86.4239 203° Southwest 372 428 21,000  Level Chicago Center
12:28PM 42.6892 -86.4794 203° Southwest 373 429 21,000  Level Chicago Center
12:29PM 42.5922 -86.5289 201° Southwest 376 433 21,000 -420 Level Chicago Center
12:30PM 42.4881 -86.4853 163° South 391 450 20,200 -1,140 Descending Chicago Center
12:31PM 42.3875 -86.4378 161° South 386 444 18,700 -1,500 Descending Chicago Center
12:32PM 42.2700 -86.3897 163° South 379 436 17,100 -1,500 Descending Chicago Center
12:33PM 42.1678 -86.3803 176° South 371 427 15,600 -1,440 Descending Chicago Center
12:34PM 42.0681 -86.3642 173° South 360 414 14,100 -1,500 Descending Chicago Center
12:35PM 41.9792 -86.3500 173° South 339 390 12,600 -1,500 Descending Chicago Center
12:36PM 41.8886 -86.3369 174° South 331 381 11,000 -1,260 Descending Chicago Center
12:37PM 41.7994 -86.3753 198° South 324 373 10,000 -540 Descending Chicago Center
12:38PM 41.7528 -86.4733 237° Southwest 321 369 10,000  Level Chicago Center
12:39PM 41.7178 -86.5786 246° West 315 362 10,000  Level Chicago Center
12:40PM 41.6825 -86.6833 246° West 311 358 10,000  Level Chicago Center
12:41PM 41.6444 -86.7883 244° Southwest 308 354 10,000 -180 Level Chicago Center
12:42PM 41.6114 -86.8875 246° West 295 339 9,700 -1,020 Descending Chicago Center
12:43PM 41.5733 -86.9944 245° Southwest 269 310 7,900 -1,560 Descending Chicago Center
12:44PM 41.5425 -87.0856 246° West 270 311 6,500 -960 Descending Chicago Center
12:45PM 41.5142 -87.1789 248° West 275 316 6,000 -420 Descending Chicago Center
12:46PM 41.5203 -87.2794 275° West 274 315 5,700 -780 Descending Chicago Center
12:47PM 41.5325 -87.3767 280° West 271 312 4,500 -840 Descending Chicago Center
12:48PM 41.5772 -87.4606 305° West 245 282 4,000 -300 Descending Chicago Center
12:49PM 41.6194 -87.5203 313° West 233 268 4,000  Level Chicago Center
12:50PM 41.6561 -87.5717 314° West 214 246 4,000 -300 Level Chicago Center
12:51PM 41.6908 -87.6197 314° West 197 227 3,400 -720 Descending Chicago Center
12:52PM 41.7256 -87.6678 314° West 188 216 2,600 -780 Descending Chicago Center
12:53PM 41.7811 -87.6956 340° North 186 214 1,800 -660 Descending Chicago Center
12:54PM 41.8106 -87.7219 326° Northwest 169 194 1,300 -360 Descending Chicago Center
12:55PM 41.7903 -87.7622 236° Southwest 162 186 1,100 -240 Descending Chicago Center